Time;durP1;ratioP1;P1;durP2;ratioP2;P2;SDS_P1;SDS_P2;PMS_P1;PMS_P2;Temp;Humidity;BMP_temperature;BMP_pressure;BME280_temperature;BME280_humidity;BME280_pressure;Samples;Min_cycle;Max_cycle;Signal;HPM_P1;HPM_P2
2022/09/16 00:00:29;;;;;;;8.17;3.50;;;;;;;17.71;100.00;99251.77;1479111;88;21589;-79
2022/09/16 00:02:55;;;;;;;5.70;3.43;;;;;;;17.73;100.00;99251.03;1483746;88;21380;-80
2022/09/16 00:05:22;;;;;;;5.63;3.53;;;;;;;17.74;100.00;99243.29;1486526;88;21543;-79
2022/09/16 00:07:49;;;;;;;5.57;3.00;;;;;;;17.77;100.00;99244.18;1481329;87;21440;-79
2022/09/16 00:10:15;;;;;;;8.47;3.10;;;;;;;17.77;100.00;99248.19;1480710;88;21440;-80
2022/09/16 00:12:41;;;;;;;9.23;3.47;;;;;;;17.78;100.00;99251.19;1489238;87;21411;-79
2022/09/16 00:15:09;;;;;;;5.93;3.23;;;;;;;17.75;100.00;99251.61;1477189;88;21419;-80
2022/09/16 00:17:36;;;;;;;5.23;3.07;;;;;;;17.75;100.00;99259.14;1475304;88;21395;-80
2022/09/16 00:20:04;;;;;;;10.97;3.40;;;;;;;17.76;100.00;99262.63;1484037;88;21439;-80
2022/09/16 00:22:31;;;;;;;4.13;3.10;;;;;;;17.78;100.00;99264.08;1474171;88;21559;-80
2022/09/16 00:24:57;;;;;;;6.27;3.67;;;;;;;17.80;100.00;99272.67;1486169;88;21603;-79
2022/09/16 00:27:23;;;;;;;7.57;2.80;;;;;;;17.87;100.00;99272.62;1444052;88;21404;-79
2022/09/16 00:29:49;;;;;;;6.60;3.37;;;;;;;17.91;100.00;99263.09;1480977;88;21396;-79
2022/09/16 00:32:15;;;;;;;4.77;3.73;;;;;;;17.92;100.00;99263.38;1479171;87;21426;-79
2022/09/16 00:34:41;;;;;;;8.83;3.87;;;;;;;17.89;100.00;99261.15;1476257;87;23262;-80
2022/09/16 00:37:08;;;;;;;13.97;4.53;;;;;;;17.86;100.00;99264.27;1479965;87;22566;-80
2022/09/16 00:39:36;;;;;;;4.93;3.17;;;;;;;17.85;100.00;99276.56;1485048;88;21485;-75
2022/09/16 00:42:06;;;;;;;6.03;4.43;;;;;;;17.76;100.00;99278.68;1480370;88;21425;-79
2022/09/16 00:45:01;;;;;;;5.20;4.00;;;;;;;17.72;100.00;99280.98;1484630;88;21425;-80
2022/09/16 00:47:38;;;;;;;9.50;4.80;;;;;;;17.72;100.00;99280.15;1491067;87;21441;-78
2022/09/16 00:50:13;;;;;;;10.63;5.03;;;;;;;17.61;100.00;99281.72;1524912;88;21359;-78
2022/09/16 00:52:41;;;;;;;6.93;4.37;;;;;;;17.56;100.00;99282.38;1483167;88;21411;-78
2022/09/16 00:55:11;;;;;;;8.40;4.33;;;;;;;17.55;100.00;99290.60;1480302;88;21514;-77
2022/09/16 00:57:39;;;;;;;6.78;4.33;;;;;;;17.56;100.00;99294.94;1481788;87;21577;-78
2022/09/16 01:00:10;;;;;;;10.07;4.80;;;;;;;17.59;100.00;99300.66;1479180;87;21410;-75
2022/09/16 01:02:35;;;;;;;7.80;5.50;;;;;;;17.56;100.00;99306.45;1482854;88;22261;-77
2022/09/16 01:05:11;;;;;;;8.17;5.03;;;;;;;17.53;100.00;99302.06;1479899;88;21477;-77
2022/09/16 01:07:47;;;;;;;10.60;5.10;;;;;;;17.51;100.00;99298.26;1481525;88;21440;-78
2022/09/16 01:10:17;;;;;;;11.13;5.53;;;;;;;17.52;100.00;99293.72;1482953;88;21499;-78
2022/09/16 01:12:48;;;;;;;10.23;4.97;;;;;;;17.62;100.00;99295.91;1485235;87;21381;-78
2022/09/16 01:15:16;;;;;;;8.73;5.83;;;;;;;17.69;100.00;99295.31;1478322;86;21492;-77
2022/09/16 01:18:09;;;;;;;8.10;5.60;;;;;;;17.74;100.00;99302.16;1460162;89;21404;-78
2022/09/16 01:20:52;;;;;;;8.50;5.20;;;;;;;17.73;100.00;99309.90;1471341;89;21551;-78
2022/09/16 01:23:42;;;;;;;7.13;5.67;;;;;;;17.75;100.00;99322.52;1455129;89;21583;-78
2022/09/16 01:26:26;;;;;;;9.38;5.37;;;;;;;17.79;100.00;99323.77;1465152;89;22454;-77
2022/09/16 01:29:45;;;;;;;9.10;5.07;;;;;;;17.81;100.00;99322.50;1449390;89;21523;-76
2022/09/16 01:32:38;;;;;;;7.93;6.20;;;;;;;17.86;100.00;99319.14;1467470;89;21458;-75
2022/09/16 01:35:32;;;;;;;9.10;5.63;;;;;;;17.91;100.00;99325.18;1442777;90;22019;-78
2022/09/16 01:38:31;;;;;;;8.87;6.83;;;;;;;17.93;100.00;99325.78;1426101;90;22082;-77
2022/09/16 01:41:06;;;;;;;9.20;6.83;;;;;;;17.95;100.00;99327.70;1410827;92;21623;-78
2022/09/16 01:43:55;;;;;;;6.87;5.57;;;;;;;17.96;100.00;99322.14;1439182;90;21414;-77
2022/09/16 01:46:27;;;;;;;7.17;5.17;;;;;;;17.97;100.00;99326.97;1465306;89;21352;-77
2022/09/16 01:49:31;;;;;;;9.10;6.40;;;;;;;17.97;100.00;99337.14;1499846;87;21417;-78
2022/09/16 01:52:06;;;;;;;11.00;5.70;;;;;;;17.94;100.00;99324.20;1500226;87;22224;-79
2022/09/16 01:54:44;;;;;;;9.87;6.17;;;;;;;17.94;100.00;99322.87;1460616;88;21603;-81
2022/09/16 01:57:22;;;;;;;6.07;5.33;;;;;;;17.93;100.00;99317.76;1460295;89;21418;-80
2022/09/16 01:59:54;;;;;;;6.23;4.90;;;;;;;17.91;100.00;99330.53;1469324;88;21560;-80
2022/09/16 02:02:46;;;;;;;11.83;6.37;;;;;;;17.91;100.00;99338.04;1461389;89;21391;-80
2022/09/16 02:05:18;;;;;;;16.43;6.07;;;;;;;17.92;100.00;99336.98;1455498;89;21531;-80
2022/09/16 02:07:49;;;;;;;10.17;6.30;;;;;;;17.91;100.00;99338.04;1461151;89;21648;-81
2022/09/16 02:10:30;;;;;;;17.87;7.10;;;;;;;17.91;100.00;99341.24;1464013;88;21496;-80
2022/09/16 02:13:05;;;;;;;7.87;6.30;;;;;;;17.89;100.00;99350.00;1468451;89;22404;-80
2022/09/16 02:15:33;;;;;;;8.57;6.47;;;;;;;17.86;100.00;99357.95;1494837;87;21580;-80
2022/09/16 02:18:04;;;;;;;12.53;7.87;;;;;;;17.85;100.00;99355.52;1485949;87;21462;-81
2022/09/16 02:20:33;;;;;;;10.73;7.63;;;;;;;17.81;100.00;99360.50;1498958;87;21527;-81
2022/09/16 02:23:08;;;;;;;7.93;7.17;;;;;;;17.78;100.00;99364.92;1491272;87;21514;-81
2022/09/16 02:25:38;;;;;;;13.93;8.00;;;;;;;17.76;100.00;99362.45;1500113;87;21631;-81
2022/09/16 02:28:11;;;;;;;9.70;7.45;;;;;;;17.75;100.00;99355.47;1496227;87;21417;-81
2022/09/16 02:30:41;;;;;;;9.03;7.40;;;;;;;17.74;100.00;99352.48;1443167;90;22496;-80
2022/09/16 02:33:09;;;;;;;9.10;7.10;;;;;;;17.73;100.00;99356.20;1491896;87;21447;-79
2022/09/16 02:35:38;;;;;;;12.63;6.83;;;;;;;17.69;100.00;99352.84;1492617;87;22009;-78
2022/09/16 02:38:25;;;;;;;10.47;6.93;;;;;;;17.67;100.00;99354.94;1454501;89;21418;-80
2022/09/16 02:40:56;;;;;;;12.70;7.90;;;;;;;17.65;100.00;99351.66;1462788;89;21495;-80
2022/09/16 02:43:24;;;;;;;12.10;7.63;;;;;;;17.60;100.00;99361.14;1460367;89;21395;-78
2022/09/16 02:46:05;;;;;;;16.53;8.47;;;;;;;17.57;100.00;99354.89;1459229;89;21458;-79
2022/09/16 02:48:48;;;;;;;11.87;8.43;;;;;;;17.53;100.00;99355.05;1459247;89;21390;-80
2022/09/16 02:51:43;;;;;;;13.27;8.13;;;;;;;17.52;100.00;99364.11;1442659;89;22336;-79
2022/09/16 02:54:34;;;;;;;8.37;7.57;;;;;;;17.49;100.00;99363.22;1470453;89;21541;-80
2022/09/16 02:57:00;;;;;;;12.27;9.67;;;;;;;17.41;100.00;99356.80;1429109;90;21513;-79
2022/09/16 02:59:27;;;;;;;15.23;10.20;;;;;;;17.35;100.00;99363.02;1476168;87;22395;-78
2022/09/16 03:01:54;;;;;;;15.70;10.50;;;;;;;17.30;100.00;99368.19;1480726;87;21416;-79
2022/09/16 03:04:20;;;;;;;16.63;10.53;;;;;;;17.27;100.00;99368.63;1481661;87;21353;-79
2022/09/16 03:06:47;;;;;;;16.27;10.97;;;;;;;17.22;100.00;99379.96;1480055;87;22387;-79
2022/09/16 03:09:23;;;;;;;15.10;10.77;;;;;;;17.14;100.00;99385.04;1477243;88;22076;-80
2022/09/16 03:12:09;;;;;;;12.73;10.97;;;;;;;17.10;100.00;99393.73;1483197;87;22431;-80
2022/09/16 03:15:18;;;;;;;20.13;11.03;;;;;;;17.06;100.00;99392.01;1478883;87;21463;-80
2022/09/16 03:18:10;;;;;;;17.37;11.47;;;;;;;17.04;100.00;99388.72;1467959;88;21529;-80
2022/09/16 03:20:56;;;;;;;22.20;12.10;;;;;;;17.05;100.00;99393.02;1488817;88;21448;-79
2022/09/16 03:23:33;;;;;;;12.83;10.87;;;;;;;17.02;100.00;99394.79;1488197;88;21359;-79
2022/09/16 03:26:13;;;;;;;15.27;11.57;;;;;;;17.00;100.00;99400.86;1483243;88;21492;-79
2022/09/16 03:29:22;;;;;;;18.62;13.72;;;;;;;17.00;100.00;99396.03;1482834;88;21388;-80
2022/09/16 03:32:16;;;;;;;16.63;12.03;;;;;;;17.00;100.00;99398.19;1492312;87;21524;-79
2022/09/16 03:34:56;;;;;;;16.40;10.07;;;;;;;16.98;100.00;99400.28;1490718;88;21647;-79
2022/09/16 03:37:26;;;;;;;14.83;10.90;;;;;;;17.01;100.00;99403.04;1473510;88;21441;-80
2022/09/16 03:39:57;;;;;;;17.17;10.53;;;;;;;17.00;100.00;99406.20;1469198;88;21420;-80
2022/09/16 03:42:23;;;;;;;13.67;10.83;;;;;;;17.02;100.00;99404.14;1459500;88;21381;-80
2022/09/16 03:44:49;;;;;;;13.90;10.40;;;;;;;17.03;100.00;99397.78;1469586;89;21411;-79
2022/09/16 03:47:17;;;;;;;17.50;11.17;;;;;;;17.05;100.00;99397.03;1435994;90;21395;-79
2022/09/16 03:49:43;;;;;;;19.37;9.80;;;;;;;17.05;100.00;99392.20;1483303;88;22541;-80
2022/09/16 03:52:09;;;;;;;16.80;9.37;;;;;;;17.04;100.00;99403.42;1479486;88;21389;-80
2022/09/16 03:54:37;;;;;;;17.47;10.57;;;;;;;17.00;100.00;99404.87;1483476;88;22275;-79
2022/09/16 03:57:04;;;;;;;13.37;9.97;;;;;;;17.01;100.00;99398.51;1492103;88;22608;-79
2022/09/16 03:59:30;;;;;;;11.37;9.87;;;;;;;17.02;100.00;99393.45;1478886;87;21374;-80
2022/09/16 04:01:56;;;;;;;11.47;8.97;;;;;;;17.03;100.00;99396.45;1475316;87;21352;-80
2022/09/16 04:04:22;;;;;;;16.23;8.90;;;;;;;17.05;100.00;99402.38;1489695;88;21411;-80
2022/09/16 04:06:48;;;;;;;17.70;11.30;;;;;;;17.08;100.00;99407.30;1476386;87;21485;-80
2022/09/16 04:09:15;;;;;;;16.30;10.67;;;;;;;17.08;100.00;99407.30;1478213;87;21433;-78
2022/09/16 04:11:42;;;;;;;15.27;11.07;;;;;;;17.05;100.00;99406.39;1486695;88;21448;-78
2022/09/16 04:14:08;;;;;;;12.00;9.37;;;;;;;17.03;100.00;99404.96;1486867;88;22101;-79
2022/09/16 04:16:34;;;;;;;15.77;9.40;;;;;;;17.04;100.00;99412.78;1481524;88;21478;-79
2022/09/16 04:19:00;;;;;;;13.53;10.33;;;;;;;17.02;100.00;99422.86;1484930;88;21485;-80
2022/09/16 04:21:28;;;;;;;12.77;9.83;;;;;;;17.00;100.00;99414.22;1478382;88;22218;-84
2022/09/16 04:23:54;;;;;;;12.90;9.20;;;;;;;16.98;100.00;99414.98;1482949;88;22284;-79
2022/09/16 04:26:20;;;;;;;14.43;9.77;;;;;;;16.97;100.00;99416.52;1476779;87;21411;-80
2022/09/16 04:28:49;;;;;;;11.10;9.23;;;;;;;16.94;100.00;99423.09;1482402;88;21344;-80
2022/09/16 04:31:15;;;;;;;15.00;8.70;;;;;;;16.93;100.00;99417.46;1492770;88;21293;-80
2022/09/16 04:33:42;;;;;;;13.47;9.93;;;;;;;16.95;100.00;99418.08;1493262;87;21395;-80
2022/09/16 04:36:12;;;;;;;10.93;9.37;;;;;;;16.97;100.00;99414.66;1487302;87;21418;-80
2022/09/16 04:38:41;;;;;;;48.85;12.88;;;;;;;17.00;100.00;99419.56;1480888;88;21588;-80
2022/09/16 04:41:12;;;;;;;16.50;11.37;;;;;;;17.04;100.00;99423.47;1488918;87;21530;-80
2022/09/16 04:43:39;;;;;;;15.25;9.40;;;;;;;17.08;100.00;99419.32;1485723;88;21506;-80
2022/09/16 04:46:06;;;;;;;13.70;10.40;;;;;;;17.10;100.00;99422.61;1478182;87;21374;-81
2022/09/16 04:48:33;;;;;;;20.77;10.47;;;;;;;17.11;100.00;99429.59;1490515;88;21367;-80
2022/09/16 04:51:09;;;;;;;16.00;10.40;;;;;;;17.14;100.00;99431.83;1485168;87;21426;-80
2022/09/16 04:53:37;;;;;;;14.17;9.93;;;;;;;17.17;100.00;99433.78;1478771;88;21440;-79
2022/09/16 04:56:18;;;;;;;14.30;9.07;;;;;;;17.17;100.00;99430.58;1486204;88;21478;-79
2022/09/16 04:58:49;;;;;;;15.90;9.57;;;;;;;17.20;100.00;99433.34;1477835;86;21609;-79
2022/09/16 05:01:20;;;;;;;13.77;10.23;;;;;;;17.24;100.00;99440.73;1477264;88;21411;-79
2022/09/16 05:03:49;;;;;;;12.20;9.80;;;;;;;17.26;100.00;99453.38;1487122;88;22373;-78
2022/09/16 05:06:20;;;;;;;13.27;9.90;;;;;;;17.28;100.00;99459.84;1488838;87;21610;-78
2022/09/16 05:08:48;;;;;;;9.57;8.57;;;;;;;17.31;100.00;99468.77;1484189;88;21507;-79
2022/09/16 05:11:19;;;;;;;14.77;9.90;;;;;;;17.34;100.00;99465.66;1489545;88;21471;-79
2022/09/16 05:13:45;;;;;;;13.60;8.58;;;;;;;17.37;100.00;99469.23;1484561;87;21574;-78
2022/09/16 05:16:15;;;;;;;15.90;9.33;;;;;;;17.41;100.00;99462.44;1479633;88;22409;-78
2022/09/16 05:18:46;;;;;;;12.20;8.55;;;;;;;17.47;100.00;99460.23;1482098;87;21404;-79
2022/09/16 05:21:17;;;;;;;13.60;11.17;;;;;;;17.52;100.00;99460.42;1486013;88;21381;-79
2022/09/16 05:23:45;;;;;;;19.77;11.27;;;;;;;17.57;100.00;99455.73;1482356;86;21417;-79
2022/09/16 05:26:18;;;;;;;16.00;11.03;;;;;;;17.59;100.00;99459.84;1507734;86;21297;-80
2022/09/16 05:28:45;;;;;;;17.57;10.60;;;;;;;17.57;100.00;99471.79;1485023;86;21493;-80
2022/09/16 05:31:25;;;;;;;14.77;9.67;;;;;;;17.41;100.00;99477.16;1484788;88;21404;-80
2022/09/16 05:34:15;;;;;;;11.43;8.88;;;;;;;17.38;100.00;99482.94;1484168;88;22239;-80
2022/09/16 05:36:46;;;;;;;15.70;10.00;;;;;;;17.40;100.00;99480.03;1482273;87;21382;-79
2022/09/16 05:39:17;;;;;;;18.03;10.33;;;;;;;17.44;100.00;99474.57;1485209;87;21522;-79
2022/09/16 05:41:44;;;;;;;17.50;10.93;;;;;;;17.48;100.00;99476.58;1489929;88;22340;-79
2022/09/16 05:44:11;;;;;;;11.33;8.87;;;;;;;17.50;100.00;99478.53;1485999;88;21499;-78
2022/09/16 05:46:39;;;;;;;25.70;11.00;;;;;;;17.52;100.00;99487.17;1478952;88;21463;-79
2022/09/16 05:49:06;;;;;;;11.33;9.83;;;;;;;17.50;100.00;99478.53;1480072;87;21512;-78
2022/09/16 05:51:32;;;;;;;10.73;9.57;;;;;;;17.47;100.00;99474.95;1487673;88;21425;-79
2022/09/16 05:53:59;;;;;;;14.00;9.40;;;;;;;17.47;100.00;99469.60;1490431;88;21508;-80
2022/09/16 05:56:28;;;;;;;12.43;11.13;;;;;;;17.47;100.00;99472.28;1482776;88;21477;-79
2022/09/16 05:58:58;;;;;;;11.43;8.63;;;;;;;17.39;100.00;99479.73;1477869;88;21455;-79
2022/09/16 06:01:29;;;;;;;13.95;9.23;;;;;;;17.32;100.00;99485.95;1484117;87;21506;-79
2022/09/16 06:03:56;;;;;;;14.07;9.67;;;;;;;17.31;100.00;99490.16;1489022;88;21455;-78
2022/09/16 06:06:26;;;;;;;10.87;9.73;;;;;;;17.37;100.00;99485.28;1488325;87;21546;-79
2022/09/16 06:08:56;;;;;;;11.50;10.20;;;;;;;17.47;100.00;99478.15;1479708;88;22386;-79
2022/09/16 06:11:24;;;;;;;11.70;10.15;;;;;;;17.61;100.00;99477.02;1484902;88;21537;-79
2022/09/16 06:13:56;;;;;;;23.00;10.03;;;;;;;17.72;100.00;99467.45;1494170;87;21477;-83
2022/09/16 06:16:25;;;;;;;10.08;7.92;;;;;;;17.81;100.00;99476.91;1489588;88;21654;-84
2022/09/16 06:18:53;;;;;;;17.45;8.85;;;;;;;17.83;100.00;99476.16;1489450;88;21426;-84
2022/09/16 06:21:20;;;;;;;9.55;8.35;;;;;;;17.85;100.00;99480.78;1484119;87;21463;-82
2022/09/16 06:23:46;;;;;;;11.65;9.65;;;;;;;17.90;100.00;99474.27;1488392;88;21463;-83
2022/09/16 06:26:17;;;;;;;13.80;9.35;;;;;;;17.98;100.00;99471.31;1482858;88;22364;-84
2022/09/16 06:28:45;;;;;;;18.17;9.03;;;;;;;18.12;100.00;99472.52;1479175;87;22519;-81
2022/09/16 06:31:15;;;;;;;12.65;8.13;;;;;;;18.26;100.00;99468.67;1482577;88;21389;-81
2022/09/16 06:33:41;;;;;;;8.65;6.97;;;;;;;18.36;100.00;99466.32;1476698;88;21404;-77
2022/09/16 06:36:12;;;;;;;5.50;4.42;;;;;;;18.41;100.00;99466.48;1482178;88;21499;-79
2022/09/16 06:38:39;;;;;;;9.48;5.30;;;;;;;18.41;97.37;99461.63;1485887;88;21507;-82
2022/09/16 06:41:09;;;;;;;8.93;5.33;;;;;;;18.42;97.84;99478.02;1488775;87;21988;-82
2022/09/16 06:43:36;;;;;;;8.85;5.42;;;;;;;18.41;96.89;99485.23;1487081;88;21500;-82
2022/09/16 06:46:12;;;;;;;8.10;7.12;;;;;;;18.37;96.02;99477.33;1477040;88;21617;-81
2022/09/16 06:48:37;;;;;;;8.90;6.62;;;;;;;18.27;93.75;99486.41;1491577;88;21492;-83
2022/09/16 06:51:08;;;;;;;10.82;6.72;;;;;;;18.19;94.43;99481.33;1489416;88;21418;-82
2022/09/16 06:53:35;;;;;;;10.88;8.48;;;;;;;18.20;95.95;99483.77;1485791;88;22674;-87
2022/09/16 06:56:09;;;;;;;18.48;7.20;;;;;;;18.24;96.72;99480.13;1489099;88;21559;-87
2022/09/16 06:58:38;;;;;;;10.45;7.28;;;;;;;18.32;97.39;99490.55;1486804;88;21594;-88
2022/09/16 07:01:12;;;;;;;7.28;5.75;;;;;;;18.39;97.41;99479.80;1482446;88;21551;-87
2022/09/16 07:03:41;;;;;;;9.53;6.15;;;;;;;18.39;90.68;99481.14;1478074;87;21529;-87
2022/09/16 07:06:10;;;;;;;11.05;6.00;;;;;;;18.43;93.62;99479.64;1474924;88;21375;-88
2022/09/16 07:08:38;;;;;;;8.38;5.45;;;;;;;18.47;92.70;99492.38;1476716;88;21543;-88
2022/09/16 07:11:08;;;;;;;8.58;5.12;;;;;;;18.46;91.40;99487.23;1484663;88;22342;-85
2022/09/16 07:13:34;;;;;;;;;;;;;;;18.42;90.27;99494.09;1494331;87;21476;-88
2022/09/16 07:16:04;;;;;;;5.03;4.28;;;;;;;18.24;85.37;99486.81;1489544;87;20386;-86
2022/09/16 07:18:33;;;;;;;6.45;4.08;;;;;;;18.33;89.49;99496.23;1482898;88;22424;-86
2022/09/16 07:21:15;;;;;;;7.83;4.50;;;;;;;18.36;88.79;99499.81;1482071;87;21618;-87
2022/09/16 07:23:53;;;;;;;6.77;3.80;;;;;;;18.42;88.15;99494.90;1485696;88;21581;-86
2022/09/16 07:26:25;;;;;;;12.18;3.42;;;;;;;18.47;86.39;99486.18;1479578;87;21614;-88
2022/09/16 07:28:53;;;;;;;8.83;3.40;;;;;;;18.39;79.01;99483.81;1484683;88;22358;-86
2022/09/16 07:31:28;;;;;;;6.28;3.67;;;;;;;18.45;82.23;99489.09;1490152;88;22601;-88
2022/09/16 07:33:55;;;;;;;6.97;4.17;;;;;;;18.54;83.84;99493.64;1481638;87;21625;-87
2022/09/16 07:36:26;;;;;;;8.48;3.65;;;;;;;18.63;83.53;99494.17;1479362;87;21618;-86
2022/09/16 07:38:58;;;;;;;4.97;3.33;;;;;;;18.64;80.13;99497.13;1490993;88;21650;-88
2022/09/16 07:41:29;;;;;;;11.30;4.58;;;;;;;18.62;79.31;99500.58;1490071;87;22298;-87
2022/09/16 07:43:58;;;;;;;5.22;3.92;;;;;;;18.68;80.10;99498.34;1450622;90;21457;-88
2022/09/16 07:46:31;;;;;;;5.33;4.03;;;;;;;18.74;79.75;99504.18;1438887;90;22338;-85
2022/09/16 07:49:00;;;;;;;4.78;3.75;;;;;;;18.80;80.31;99504.63;1497448;87;22425;-86
2022/09/16 07:51:28;;;;;;;9.15;3.45;;;;;;;18.88;79.83;99498.16;1495173;87;21455;-88
2022/09/16 07:53:59;;;;;;;5.00;3.80;;;;;;;18.94;78.51;99496.72;1487226;87;21521;-84
2022/09/16 07:56:29;;;;;;;9.13;4.00;;;;;;;18.94;77.86;99498.06;1492118;87;21478;-86
2022/09/16 07:58:56;;;;;;;11.15;3.98;;;;;;;18.84;72.51;99494.27;1492514;87;21411;-89
2022/09/16 08:27:18;;;;;;;8.38;3.40;;;;;;;19.41;73.22;99505.50;1506378;85;22649;-81
2022/09/16 08:29:44;;;;;;;7.72;3.47;;;;;;;19.32;72.35;99514.39;1485574;87;22334;-81
2022/09/16 08:32:10;;;;;;;9.80;3.37;;;;;;;19.36;72.89;99516.94;1488302;87;21419;-82
2022/09/16 08:34:38;;;;;;;4.90;3.90;;;;;;;19.50;72.90;99512.70;1487558;88;21449;-81
2022/09/16 08:37:05;;;;;;;14.93;4.45;;;;;;;19.71;70.88;99500.16;1485257;88;21485;-81
2022/09/16 08:39:31;;;;;;;21.77;5.65;;;;;;;19.71;70.88;99500.16;1483768;88;21570;-81
2022/09/16 08:42:09;;;;;;;11.70;4.08;;;;;;;19.90;70.02;99519.68;1472627;88;21428;-82
2022/09/16 08:45:01;;;;;;;7.20;4.25;;;;;;;20.18;70.03;99515.00;1448002;89;21427;-81
2022/09/16 08:48:06;;;;;;;9.65;4.30;;;;;;;20.38;69.71;99507.13;1467700;89;21564;-82
2022/09/16 08:50:38;;;;;;;7.47;3.35;;;;;;;20.50;68.09;99506.05;1464376;89;21641;-82
2022/09/16 08:53:10;;;;;;;14.13;4.08;;;;;;;20.42;65.35;99511.77;1467757;89;21550;-80
2022/09/16 08:55:41;;;;;;;12.23;3.77;;;;;;;20.34;66.00;99530.96;1457242;89;21560;-81
2022/09/16 08:58:18;;;;;;;14.60;4.47;;;;;;;20.04;67.80;99488.06;1469178;89;22359;-81
2022/09/16 09:00:48;;;;;;;6.90;3.55;;;;;;;20.04;67.80;99488.06;1467856;89;21502;-80
2022/09/16 09:03:23;;;;;;;9.70;3.45;;;;;;;20.11;68.23;99507.59;1465556;89;21510;-80
2022/09/16 09:05:56;;;;;;;10.50;3.25;;;;;;;19.95;66.81;99514.44;1461313;89;21679;-83
2022/09/16 09:08:51;;;;;;;7.17;3.80;;;;;;;19.86;67.11;99515.02;1457699;89;21523;-82
2022/09/16 09:11:53;;;;;;;10.85;4.20;;;;;;;19.82;67.93;99511.95;1445154;88;21502;-83
2022/09/16 09:14:59;;;;;;;7.03;4.08;;;;;;;19.81;68.17;99519.19;1461043;89;21508;-83
2022/09/16 09:17:36;;;;;;;7.30;4.50;;;;;;;19.80;67.69;99510.86;1463207;89;21472;-82
2022/09/16 09:20:23;;;;;;;9.13;5.50;;;;;;;19.91;68.42;99513.78;1462151;89;21619;-82
2022/09/16 09:23:04;;;;;;;8.60;4.90;;;;;;;20.01;69.04;99510.02;1469656;88;21509;-82
2022/09/16 09:25:51;;;;;;;6.78;4.30;;;;;;;20.07;68.74;99494.31;1448799;89;21435;-80
2022/09/16 09:28:47;;;;;;;11.48;4.53;;;;;;;20.10;68.68;99497.87;1450793;90;21569;-83
2022/09/16 09:31:50;;;;;;;15.08;4.53;;;;;;;19.99;65.84;99504.05;1452356;90;21495;-83
2022/09/16 09:34:42;;;;;;;4.78;3.65;;;;;;;19.94;66.17;99502.08;1453506;89;21466;-83
2022/09/16 09:37:46;;;;;;;14.83;4.30;;;;;;;19.95;66.68;99501.02;1455687;89;21539;-83
2022/09/16 09:40:48;;;;;;;11.25;4.08;;;;;;;20.07;67.58;99494.31;1443451;89;22418;-83
2022/09/16 09:43:23;;;;;;;6.22;3.92;;;;;;;20.17;67.93;99501.28;1449401;90;21584;-83
2022/09/16 09:46:14;;;;;;;7.17;3.58;;;;;;;20.26;67.32;99500.41;1454469;90;21488;-83
2022/09/16 09:49:10;;;;;;;9.98;4.22;;;;;;;20.35;66.79;99497.66;1446990;89;22227;-83
2022/09/16 09:52:09;;;;;;;7.40;4.17;;;;;;;20.57;67.25;99495.73;1411055;92;21622;-83
2022/09/16 09:54:37;;;;;;;4.37;3.67;;;;;;;20.84;66.75;99500.89;1416455;92;21641;-82
2022/09/16 09:57:33;;;;;;;6.37;3.30;;;;;;;20.97;65.25;99505.17;1439612;89;22375;-82
2022/09/16 10:00:16;;;;;;;10.28;3.15;;;;;;;21.13;66.23;99507.13;1457013;89;21377;-83
2022/09/16 10:02:45;;;;;;;4.22;3.45;;;;;;;21.31;65.79;99499.92;1458655;89;21495;-84
2022/09/16 10:05:23;;;;;;;8.83;3.10;;;;;;;21.39;65.53;99503.61;1446434;89;21525;-84
2022/09/16 10:07:52;;;;;;;6.28;2.92;;;;;;;21.38;64.18;99498.77;1450343;90;21443;-84
2022/09/16 10:10:23;;;;;;;9.20;3.10;;;;;;;21.35;63.75;99484.95;1454479;90;21436;-83
2022/09/16 10:12:49;;;;;;;;;;;;;;;21.35;64.03;99493.02;1454690;89;22264;-84
2022/09/16 10:15:26;;;;;;;3.20;2.52;;;;;;;21.33;63.69;99499.98;1455401;88;20240;-83
2022/09/16 10:17:53;;;;;;;7.17;3.50;;;;;;;21.36;64.38;99498.18;1453714;89;21595;-83
2022/09/16 10:20:38;;;;;;;4.80;3.17;;;;;;;21.49;63.95;99497.09;1455500;90;21488;-83
2022/09/16 10:23:13;;;;;;;11.88;3.72;;;;;;;21.67;63.71;99493.35;1454991;90;22434;-82
2022/09/16 10:25:41;;;;;;;7.85;3.83;;;;;;;21.89;63.00;99492.63;1449133;89;21502;-82
2022/09/16 10:28:25;;;;;;;5.90;2.87;;;;;;;22.15;61.57;99489.80;1444753;90;21443;-82
2022/09/16 10:30:56;;;;;;;7.45;3.10;;;;;;;22.38;61.30;99481.55;1443460;90;21517;-81
2022/09/16 10:33:35;;;;;;;4.33;2.92;;;;;;;22.63;60.17;99478.93;1436743;88;21547;-82
2022/09/16 10:36:09;;;;;;;7.55;2.98;;;;;;;22.87;60.01;99479.48;1470786;88;22575;-85
2022/09/16 10:38:45;;;;;;;4.62;2.85;;;;;;;23.02;59.75;99486.47;1403392;91;21703;-78
2022/09/16 10:41:28;;;;;;;5.33;2.90;;;;;;;23.06;59.57;99484.07;1431475;91;21472;-82
2022/09/16 10:44:05;;;;;;;8.80;2.35;;;;;;;23.11;58.89;99490.34;1466032;88;21553;-82
2022/09/16 10:46:34;;;;;;;6.33;2.70;;;;;;;23.09;58.58;99488.96;1468821;88;21465;-83
2022/09/16 10:49:11;;;;;;;5.97;3.35;;;;;;;22.94;56.97;99492.27;1471377;88;21382;-83
2022/09/16 10:51:37;;;;;;;5.22;2.25;;;;;;;22.71;55.78;99497.37;1425414;91;21392;-82
2022/09/16 10:54:05;;;;;;;6.00;2.50;;;;;;;22.52;55.67;99500.34;1423835;91;21457;-84
2022/09/16 10:56:36;;;;;;;4.67;2.33;;;;;;;22.38;55.82;99499.06;1418287;91;21635;-84
2022/09/16 10:59:12;;;;;;;4.78;2.95;;;;;;;22.34;56.15;99506.03;1427382;91;21620;-81
2022/09/16 11:01:49;;;;;;;5.78;2.37;;;;;;;22.34;56.26;99502.52;1426623;91;21442;-83
2022/09/16 11:04:53;;;;;;;9.25;3.08;;;;;;;22.32;56.54;99501.95;1423007;91;21436;-81
2022/09/16 11:07:39;;;;;;;4.78;2.30;;;;;;;22.24;55.88;99497.78;1417676;91;21666;-83
2022/09/16 11:10:44;;;;;;;8.83;2.00;;;;;;;22.18;55.44;99506.85;1421752;91;21428;-82
2022/09/16 11:13:31;;;;;;;4.53;2.40;;;;;;;22.09;54.98;99503.72;1410621;91;21444;-83
2022/09/16 11:16:21;;;;;;;7.70;3.02;;;;;;;22.06;55.45;99507.72;1426937;91;21569;-82
2022/09/16 11:18:58;;;;;;;5.62;2.35;;;;;;;22.04;55.07;99505.83;1457116;89;21584;-84
2022/09/16 11:21:36;;;;;;;18.20;3.90;;;;;;;21.92;54.71;99509.64;1450746;89;21385;-82
2022/09/16 11:24:17;;;;;;;11.40;4.00;;;;;;;21.88;55.15;99502.59;1458501;89;21473;-83
2022/09/16 11:27:07;;;;;;;7.92;2.72;;;;;;;21.82;55.28;99504.38;1452747;88;21457;-82
2022/09/16 11:30:03;;;;;;;13.90;3.08;;;;;;;21.83;55.70;99508.69;1463004;88;21514;-84
2022/09/16 11:33:02;;;;;;;4.78;3.02;;;;;;;21.79;56.11;99502.17;1459760;88;22435;-83
2022/09/16 11:36:20;;;;;;;10.20;2.62;;;;;;;21.70;55.78;99494.75;1466629;89;21411;-83
2022/09/16 11:39:11;;;;;;;11.93;2.75;;;;;;;21.59;55.29;99495.91;1468262;89;21684;-83
2022/09/16 11:42:03;;;;;;;6.08;2.17;;;;;;;21.44;55.38;99486.22;1452980;89;21412;-83
2022/09/16 11:45:08;;;;;;;20.40;4.17;;;;;;;21.33;55.24;99486.52;1461652;88;21649;-83
2022/09/16 11:48:01;;;;;;;6.08;3.27;;;;;;;21.28;55.71;99484.27;1467555;89;21471;-84
2022/09/16 11:50:45;;;;;;;6.97;2.58;;;;;;;21.18;55.35;99474.14;1457170;89;21566;-84
2022/09/16 11:53:45;;;;;;;6.40;2.75;;;;;;;21.15;55.79;99471.93;1461426;88;22259;-84
2022/09/16 11:56:22;;;;;;;5.70;2.62;;;;;;;21.18;56.63;99464.72;1460667;88;22549;-84
2022/09/16 11:59:27;;;;;;;6.72;2.50;;;;;;;21.17;57.01;99462.53;1463812;89;21456;-85
2022/09/16 12:01:59;;;;;;;4.55;2.65;;;;;;;21.13;57.10;99464.08;1462554;89;21464;-85
2022/09/16 12:04:46;;;;;;;6.80;2.90;;;;;;;21.05;57.58;99467.15;1456763;89;21456;-84
2022/09/16 12:07:28;;;;;;;8.63;3.05;;;;;;;20.87;58.11;99483.47;1461363;89;22348;-84
2022/09/16 12:10:18;;;;;;;12.75;3.22;;;;;;;20.76;58.16;99473.56;1473000;88;21455;-84
2022/09/16 12:12:56;;;;;;;8.10;2.50;;;;;;;20.76;58.16;99473.56;1469711;88;21654;-84
2022/09/16 12:15:40;;;;;;;5.42;2.98;;;;;;;20.76;59.06;99481.63;1471815;89;22438;-85
2022/09/16 12:18:24;;;;;;;3.52;2.60;;;;;;;20.62;59.16;99460.37;1460502;88;21614;-84
2022/09/16 12:20:59;;;;;;;5.83;3.08;;;;;;;20.57;59.80;99458.94;1460097;88;21478;-84
2022/09/16 12:23:32;;;;;;;7.72;2.22;;;;;;;20.51;60.42;99463.86;1466241;89;21604;-84
2022/09/16 12:26:15;;;;;;;9.90;2.27;;;;;;;20.44;60.14;99464.52;1461862;89;21471;-85
2022/09/16 12:28:54;;;;;;;5.22;2.20;;;;;;;20.21;57.37;99451.39;1460531;88;21463;-83